createdAt,value
2022-12-18T00:01:20.409Z,10.32
2022-12-18T00:03:47.750Z,9.07
2022-12-18T00:06:14.946Z,8.48
2022-12-18T00:08:42.597Z,8.50
2022-12-18T00:11:13.858Z,8.13
2022-12-18T00:13:41.423Z,7.80
2022-12-18T00:16:13.034Z,8.52
2022-12-18T00:18:40.293Z,9.13
2022-12-18T00:21:09.793Z,9.10
2022-12-18T00:23:38.916Z,8.65
2022-12-18T00:26:09.143Z,9.85
2022-12-18T00:28:35.858Z,9.15
2022-12-18T00:31:08.337Z,8.00
2022-12-18T00:33:36.751Z,9.70
2022-12-18T00:36:10.394Z,8.40
2022-12-18T00:38:37.889Z,8.30
2022-12-18T00:41:05.600Z,8.55
2022-12-18T00:43:37.041Z,8.75
2022-12-18T00:46:04.906Z,7.55
2022-12-18T00:48:32.072Z,7.68
2022-12-18T00:50:58.698Z,9.32
2022-12-18T00:53:25.373Z,8.98
2022-12-18T00:55:52.138Z,8.23
2022-12-18T00:58:18.872Z,9.57
2022-12-18T01:00:45.898Z,9.52
2022-12-18T01:03:15.341Z,9.90
2022-12-18T01:05:42.975Z,9.52
2022-12-18T01:08:10.020Z,10.60
2022-12-18T01:10:36.776Z,10.30
2022-12-18T01:13:03.376Z,10.55
2022-12-18T01:15:30.122Z,11.45
2022-12-18T01:17:56.748Z,9.63
2022-12-18T01:20:23.447Z,10.75
2022-12-18T01:22:50.103Z,10.20
2022-12-18T01:25:16.756Z,10.02
2022-12-18T01:27:44.278Z,11.35
2022-12-18T01:30:11.512Z,10.57
2022-12-18T01:32:38.463Z,11.23
2022-12-18T01:35:06.457Z,9.25
2022-12-18T01:37:33.102Z,10.13
2022-12-18T01:39:59.708Z,12.18
2022-12-18T01:42:26.684Z,10.65
2022-12-18T01:45:15.041Z,10.18
2022-12-18T01:47:49.032Z,10.02
2022-12-18T01:50:39.220Z,9.55
2022-12-18T01:53:09.004Z,10.48
2022-12-18T01:55:52.928Z,10.98
2022-12-18T01:58:21.172Z,10.90
2022-12-18T02:00:47.920Z,10.32
2022-12-18T02:03:15.617Z,9.38
2022-12-18T02:05:51.213Z,7.47
2022-12-18T02:08:28.537Z,7.80
2022-12-18T02:11:12.022Z,8.32
2022-12-18T02:13:56.621Z,8.68
2022-12-18T02:16:45.841Z,9.02
2022-12-18T02:19:34.575Z,8.20
2022-12-18T02:22:33.594Z,7.50
2022-12-18T02:25:30.764Z,9.05
2022-12-18T02:28:01.013Z,7.72
2022-12-18T02:30:32.297Z,8.55
2022-12-18T02:33:02.146Z,7.63
2022-12-18T02:35:31.311Z,8.00
2022-12-18T02:37:59.532Z,8.77
2022-12-18T02:40:29.397Z,8.82
2022-12-18T02:42:56.360Z,6.72
2022-12-18T02:45:22.931Z,8.35
2022-12-18T02:47:51.572Z,9.27
2022-12-18T02:50:34.178Z,8.13
2022-12-18T02:53:28.463Z,8.45
2022-12-18T02:56:19.572Z,8.90
2022-12-18T02:58:46.269Z,9.38
2022-12-18T03:01:28.297Z,10.57
2022-12-18T03:04:09.517Z,10.05
2022-12-18T03:06:48.129Z,8.60
2022-12-18T03:09:40.376Z,9.20
2022-12-18T03:12:24.032Z,10.43
2022-12-18T03:14:59.117Z,9.23
2022-12-18T03:17:28.944Z,8.63
2022-12-18T03:19:59.832Z,6.35
2022-12-18T03:22:31.280Z,8.73
2022-12-18T03:24:58.698Z,8.33
2022-12-18T03:27:27.667Z,7.25
2022-12-18T03:30:08.314Z,8.25
2022-12-18T03:32:42.568Z,7.40
2022-12-18T03:35:13.269Z,8.75
2022-12-18T03:37:40.091Z,8.15
2022-12-18T03:40:07.310Z,8.27
2022-12-18T03:42:57.759Z,8.95
2022-12-18T03:45:39.348Z,9.45
2022-12-18T03:48:18.888Z,9.93
2022-12-18T03:50:54.101Z,7.80
2022-12-18T03:53:53.533Z,8.70
2022-12-18T03:56:24.819Z,10.63
2022-12-18T03:58:53.681Z,9.35
2022-12-18T04:01:27.775Z,11.45
2022-12-18T04:03:56.132Z,9.82
2022-12-18T04:06:23.414Z,14.00
2022-12-18T04:08:50.451Z,10.05
2022-12-18T04:11:17.176Z,10.15
2022-12-18T04:13:44.409Z,11.52
2022-12-18T04:16:11.300Z,11.55
2022-12-18T04:18:38.356Z,12.07
2022-12-18T04:21:05.142Z,12.07
2022-12-18T04:23:31.828Z,11.98
2022-12-18T04:25:58.495Z,12.70
2022-12-18T04:28:25.326Z,11.93
2022-12-18T04:30:52.304Z,13.02
2022-12-18T04:33:19.493Z,11.75
2022-12-18T04:35:46.239Z,12.40
2022-12-18T04:38:13.114Z,11.57
2022-12-18T04:40:40.071Z,12.82
2022-12-18T04:43:08.537Z,11.75
2022-12-18T04:45:35.407Z,12.77
2022-12-18T04:48:03.615Z,11.18
2022-12-18T04:50:31.210Z,11.68
2022-12-18T04:52:58.319Z,13.23
2022-12-18T04:55:28.524Z,10.68
2022-12-18T04:57:55.271Z,14.48
2022-12-18T05:00:22.125Z,13.48
2022-12-18T05:02:49.001Z,14.35
2022-12-18T05:05:15.952Z,14.63
2022-12-18T05:07:42.698Z,13.95
2022-12-18T05:10:10.418Z,14.13
2022-12-18T05:12:57.141Z,15.00
2022-12-18T05:15:23.866Z,15.57
2022-12-18T05:17:50.544Z,13.20
2022-12-18T05:20:17.309Z,14.15
2022-12-18T05:22:43.875Z,14.50
2022-12-18T05:25:10.641Z,14.30
2022-12-18T05:27:37.245Z,13.73
2022-12-18T05:30:04.295Z,14.10
2022-12-18T05:32:31.014Z,14.55
2022-12-18T05:34:58.269Z,14.70
2022-12-18T05:37:24.933Z,14.45
2022-12-18T05:39:51.707Z,14.20
2022-12-18T05:42:18.299Z,15.73
2022-12-18T05:44:45.436Z,15.57
2022-12-18T05:47:12.160Z,14.20
2022-12-18T05:49:38.766Z,16.10
2022-12-18T05:52:05.620Z,15.50
2022-12-18T05:54:32.471Z,16.13
2022-12-18T05:56:59.631Z,14.48
2022-12-18T05:59:26.281Z,13.57
2022-12-18T06:01:53.133Z,16.02
2022-12-18T06:04:19.990Z,16.10
2022-12-18T06:06:46.611Z,15.10
2022-12-18T06:09:13.460Z,15.00
2022-12-18T06:11:40.463Z,15.23
2022-12-18T06:14:07.665Z,12.05
2022-12-18T06:16:34.429Z,14.85
2022-12-18T06:19:03.357Z,14.10
2022-12-18T06:21:30.987Z,14.13
2022-12-18T06:23:59.091Z,15.10
2022-12-18T06:26:28.461Z,13.93
2022-12-18T06:28:55.641Z,12.57
2022-12-18T06:31:22.302Z,13.18
2022-12-18T06:33:49.449Z,14.20
2022-12-18T06:36:17.624Z,11.00
2022-12-18T06:38:45.083Z,14.18
2022-12-18T06:41:17.613Z,12.48
2022-12-18T06:43:45.175Z,12.85
2022-12-18T06:46:12.436Z,13.82
2022-12-18T06:48:39.687Z,12.93
2022-12-18T06:51:06.941Z,14.10
2022-12-18T06:53:34.419Z,14.10
2022-12-18T06:56:09.785Z,13.38
2022-12-18T06:58:37.334Z,13.13
2022-12-18T07:01:06.957Z,13.85
2022-12-18T07:03:33.752Z,14.25
2022-12-18T07:06:00.531Z,15.15
2022-12-18T07:08:27.171Z,14.02
2022-12-18T07:10:56.381Z,13.90
2022-12-18T07:13:23.740Z,15.88
2022-12-18T07:15:50.498Z,15.50
2022-12-18T07:18:17.357Z,16.23
2022-12-18T07:20:45.387Z,16.77
2022-12-18T07:23:12.638Z,15.65
2022-12-18T07:25:40.451Z,17.25
2022-12-18T07:28:07.763Z,15.75
2022-12-18T07:30:38.668Z,15.88
2022-12-18T07:33:05.604Z,14.93
2022-12-18T07:35:33.697Z,14.82
2022-12-18T07:38:03.030Z,15.73
2022-12-18T07:40:29.742Z,14.73
2022-12-18T07:42:56.547Z,15.32
2022-12-18T07:45:23.270Z,15.30
2022-12-18T07:47:49.977Z,16.77
2022-12-18T07:50:16.860Z,17.85
2022-12-18T07:52:43.490Z,17.30
2022-12-18T07:55:10.125Z,16.13
2022-12-18T07:57:55.438Z,18.50
2022-12-18T08:00:23.828Z,16.08
2022-12-18T08:02:50.716Z,14.48
2022-12-18T08:05:17.579Z,15.50
2022-12-18T08:07:44.321Z,16.25
2022-12-18T08:10:10.996Z,17.70
2022-12-18T08:12:37.863Z,17.33
2022-12-18T08:15:04.760Z,20.48
2022-12-18T08:17:31.889Z,19.35
2022-12-18T08:19:58.585Z,16.45
2022-12-18T08:22:26.026Z,15.20
2022-12-18T08:24:52.995Z,17.17
2022-12-18T08:27:35.225Z,15.57
2022-12-18T08:30:02.305Z,13.82
2022-12-18T08:32:29.498Z,14.48
2022-12-18T08:34:56.165Z,12.85
2022-12-18T08:37:22.916Z,14.15
2022-12-18T08:39:49.621Z,14.18
2022-12-18T08:42:34.959Z,14.80
2022-12-18T08:45:02.225Z,14.10
2022-12-18T08:47:28.812Z,14.35
2022-12-18T08:49:55.689Z,13.45
2022-12-18T08:52:22.732Z,13.57
2022-12-18T08:54:49.464Z,12.45
2022-12-18T08:57:17.176Z,14.38
2022-12-18T08:59:43.907Z,12.05
2022-12-18T09:02:12.419Z,13.48
2022-12-18T09:04:41.040Z,13.20
2022-12-18T09:07:08.473Z,13.35
2022-12-18T09:09:35.066Z,12.57
2022-12-18T09:12:01.749Z,11.93
2022-12-18T09:14:28.397Z,14.68
2022-12-18T09:16:55.230Z,10.00
2022-12-18T09:19:21.914Z,11.35
2022-12-18T09:21:48.740Z,11.85
2022-12-18T09:24:16.852Z,12.32
2022-12-18T09:26:47.312Z,12.80
2022-12-18T09:29:16.789Z,12.10
2022-12-18T09:31:45.828Z,13.27
2022-12-18T09:34:12.495Z,13.77
2022-12-18T09:36:39.433Z,11.73
2022-12-18T09:39:08.597Z,12.85
2022-12-18T09:41:58.061Z,12.98
2022-12-18T09:44:41.483Z,10.65
2022-12-18T09:47:17.538Z,12.32
2022-12-18T09:49:47.032Z,10.40
2022-12-18T09:52:38.616Z,11.63
2022-12-18T09:55:36.895Z,11.77
2022-12-18T09:58:23.459Z,12.35
2022-12-18T10:00:54.291Z,11.80
2022-12-18T10:03:21.817Z,11.38
2022-12-18T10:05:55.167Z,13.40
2022-12-18T10:08:33.816Z,12.55
2022-12-18T10:11:40.068Z,11.70
2022-12-18T10:14:28.530Z,11.50
2022-12-18T10:17:14.909Z,10.07
2022-12-18T10:19:42.318Z,11.30
2022-12-18T10:22:27.759Z,11.80
2022-12-18T10:25:07.957Z,12.77
2022-12-18T10:27:34.942Z,11.93
2022-12-18T10:30:02.433Z,11.15
2022-12-18T10:32:31.757Z,12.02
2022-12-18T10:35:02.038Z,11.93
2022-12-18T10:37:31.076Z,11.63
2022-12-18T10:40:22.413Z,12.15
2022-12-18T10:43:05.332Z,13.07
2022-12-18T10:47:59.395Z,10.88
2022-12-18T10:50:28.663Z,11.43
2022-12-18T10:53:07.689Z,11.48
2022-12-18T10:55:45.188Z,10.25
2022-12-18T10:58:26.780Z,12.10
2022-12-18T11:01:14.086Z,12.68
2022-12-18T11:03:44.384Z,13.05
2022-12-18T11:06:16.899Z,12.27
2022-12-18T11:08:45.876Z,12.30
2022-12-18T11:11:24.315Z,11.75
2022-12-18T11:14:03.580Z,11.02
2022-12-18T11:16:34.599Z,11.95
2022-12-18T11:19:15.281Z,12.30
2022-12-18T11:21:43.421Z,13.10
2022-12-18T11:24:24.175Z,11.65
2022-12-18T11:26:54.962Z,12.85
2022-12-18T11:29:46.244Z,13.57
2022-12-18T11:32:16.050Z,13.25
2022-12-18T11:34:48.530Z,14.07
2022-12-18T11:37:23.150Z,12.00
2022-12-18T11:40:07.658Z,12.45
2022-12-18T11:42:48.095Z,12.75
2022-12-18T11:45:14.707Z,12.80
2022-12-18T11:48:04.789Z,14.05
2022-12-18T11:50:52.184Z,15.00
2022-12-18T11:53:19.739Z,15.52
2022-12-18T11:56:01.838Z,16.38
2022-12-18T11:58:31.585Z,18.58
2022-12-18T12:01:16.675Z,20.10
2022-12-18T12:04:22.933Z,16.25
2022-12-18T12:07:10.829Z,14.80
2022-12-18T12:09:46.539Z,15.43
2022-12-18T12:12:48.721Z,14.48
2022-12-18T12:15:29.983Z,11.70
2022-12-18T12:18:00.451Z,12.90
2022-12-18T12:20:36.207Z,12.88
2022-12-18T12:23:16.622Z,12.25
2022-12-18T12:26:08.708Z,14.93
2022-12-18T12:29:10.599Z,12.73
2022-12-18T12:31:52.916Z,13.25
2022-12-18T12:34:38.722Z,13.93
2022-12-18T12:37:23.670Z,15.30
2022-12-18T12:39:54.245Z,15.65
2022-12-18T12:43:01.757Z,15.32
2022-12-18T12:45:38.796Z,13.43
2022-12-18T12:48:10.689Z,13.85
2022-12-18T12:50:40.083Z,12.15
2022-12-18T12:53:23.850Z,12.63
2022-12-18T12:55:53.173Z,11.90
2022-12-18T12:58:52.248Z,11.63
2022-12-18T13:01:42.451Z,12.68
2022-12-18T13:04:45.294Z,12.55
2022-12-18T13:07:19.973Z,13.32
2022-12-18T13:10:19.159Z,12.20
2022-12-18T13:13:09.213Z,13.05
2022-12-18T13:15:49.436Z,13.23
2022-12-18T13:18:21.394Z,12.88
2022-12-18T13:21:03.950Z,13.13
2022-12-18T13:23:32.865Z,12.40
2022-12-18T13:26:10.775Z,13.52
2022-12-18T13:28:49.817Z,13.10
2022-12-18T13:31:42.188Z,13.73
2022-12-18T13:34:29.558Z,12.77
2022-12-18T13:37:18.304Z,11.07
2022-12-18T13:39:45.200Z,13.85
2022-12-18T13:42:32.772Z,13.90
2022-12-18T13:44:59.592Z,13.15
2022-12-18T13:47:34.708Z,11.35
2022-12-18T13:50:21.081Z,11.35
2022-12-18T13:52:49.601Z,12.63
2022-12-18T13:55:21.784Z,12.20
2022-12-18T13:57:48.652Z,11.32
2022-12-18T14:00:29.759Z,11.90
2022-12-18T14:02:58.935Z,12.35
2022-12-18T14:05:39.032Z,13.23
2022-12-18T14:08:12.338Z,11.80
2022-12-18T14:13:42.877Z,11.60
2022-12-18T14:16:16.673Z,11.68
2022-12-18T14:18:51.806Z,12.10
2022-12-18T14:21:30.528Z,11.68
2022-12-18T14:24:10.176Z,10.52
2022-12-18T14:26:36.971Z,11.07
2022-12-18T14:29:23.471Z,9.77
2022-12-18T14:32:25.627Z,10.85
2022-12-18T14:34:55.250Z,10.65
2022-12-18T14:37:28.056Z,9.98
2022-12-18T14:39:55.126Z,10.00
2022-12-18T14:42:21.947Z,11.07
2022-12-18T14:45:12.952Z,10.70
2022-12-18T14:47:35.625Z,9.98
2022-12-18T14:50:02.321Z,10.23
2022-12-18T14:52:32.550Z,10.15
2022-12-18T14:54:59.688Z,9.40
2022-12-18T14:57:36.581Z,10.60
2022-12-18T15:00:09.000Z,9.65
2022-12-18T15:02:37.277Z,11.23
2022-12-18T15:05:12.632Z,10.15
2022-12-18T15:07:51.847Z,10.38
2022-12-18T15:10:40.306Z,10.38
2022-12-18T15:13:10.414Z,12.15
2022-12-18T15:15:37.230Z,8.43
2022-12-18T15:18:05.966Z,10.68
2022-12-18T15:20:34.151Z,9.35
2022-12-18T15:23:00.879Z,9.63
2022-12-18T15:25:38.377Z,9.85
2022-12-18T15:28:16.898Z,9.57
2022-12-18T15:31:02.394Z,10.18
2022-12-18T15:33:37.776Z,11.63
2022-12-18T15:36:10.177Z,11.65
2022-12-18T15:41:14.165Z,11.98
2022-12-18T15:43:41.804Z,11.15
2022-12-18T15:46:18.141Z,11.52
2022-12-18T15:48:47.596Z,11.57
2022-12-18T15:51:19.464Z,11.88
2022-12-18T15:53:47.702Z,10.95
2022-12-18T15:56:34.945Z,12.48
2022-12-18T15:59:02.921Z,11.95
2022-12-18T16:01:32.900Z,12.60
2022-12-18T16:04:01.005Z,11.60
2022-12-18T16:06:36.370Z,12.35
2022-12-18T16:09:11.938Z,13.00
2022-12-18T16:11:43.181Z,12.25
2022-12-18T16:14:22.765Z,12.30
2022-12-18T16:16:53.977Z,12.70
2022-12-18T16:19:22.506Z,12.75
2022-12-18T16:21:51.727Z,12.88
2022-12-18T16:24:24.473Z,13.00
2022-12-18T16:26:55.153Z,11.85
2022-12-18T16:29:28.335Z,12.75
2022-12-18T16:31:56.552Z,13.65
2022-12-18T16:34:35.799Z,14.38
2022-12-18T16:37:06.449Z,13.40
2022-12-18T16:39:35.648Z,13.43
2022-12-18T16:42:05.921Z,11.85
2022-12-18T16:44:34.269Z,14.45
2022-12-18T16:47:03.452Z,13.20
2022-12-18T16:49:31.003Z,13.35
2022-12-18T16:51:57.877Z,12.30
2022-12-18T16:54:25.495Z,13.20
2022-12-18T16:56:52.528Z,11.77
2022-12-18T16:59:20.006Z,13.20
2022-12-18T17:01:47.869Z,11.95
2022-12-18T17:04:15.580Z,11.25
2022-12-18T17:06:44.831Z,11.35
2022-12-18T17:09:15.486Z,12.48
2022-12-18T17:11:42.713Z,12.77
2022-12-18T17:14:18.028Z,13.98
2022-12-18T17:16:44.890Z,12.70
2022-12-18T17:19:16.909Z,13.00
2022-12-18T17:21:45.562Z,11.93
2022-12-18T17:24:12.480Z,12.93
2022-12-18T17:26:39.712Z,12.65
2022-12-18T17:29:06.571Z,13.35
2022-12-18T17:31:34.090Z,13.35
2022-12-18T17:34:03.223Z,11.25
2022-12-18T17:36:32.442Z,13.63
2022-12-18T17:39:03.770Z,14.05
2022-12-18T17:41:31.071Z,15.27
2022-12-18T17:44:00.656Z,13.63
2022-12-18T17:46:28.771Z,11.88
2022-12-18T17:48:56.388Z,11.73
2022-12-18T17:51:23.399Z,14.20
2022-12-18T17:53:50.862Z,11.05
2022-12-18T17:56:20.319Z,12.02
2022-12-18T17:58:48.397Z,13.60
2022-12-18T18:01:18.118Z,13.88
2022-12-18T18:03:45.820Z,12.80
2022-12-18T18:06:15.732Z,14.73
2022-12-18T18:08:42.594Z,14.60
2022-12-18T18:11:32.562Z,13.23
2022-12-18T18:14:03.036Z,15.48
2022-12-18T18:16:42.852Z,15.15
2022-12-18T18:19:22.020Z,14.38
2022-12-18T18:21:50.989Z,15.00
2022-12-18T18:24:23.474Z,15.95
2022-12-18T18:26:51.091Z,14.40
2022-12-18T18:29:21.021Z,15.15
2022-12-18T18:31:48.049Z,13.45
2022-12-18T18:34:21.354Z,14.15
2022-12-18T18:36:48.288Z,14.90
2022-12-18T18:39:18.440Z,20.35
2022-12-18T18:41:47.882Z,17.02
2022-12-18T18:44:16.513Z,13.77
2022-12-18T18:46:43.649Z,15.20
2022-12-18T18:49:10.933Z,16.98
2022-12-18T18:51:37.796Z,16.70
2022-12-18T18:54:05.117Z,17.48
2022-12-18T18:59:20.015Z,16.48
2022-12-18T19:01:53.107Z,16.05
2022-12-18T19:04:20.188Z,15.85
2022-12-18T19:06:48.027Z,15.23
2022-12-18T19:09:15.830Z,17.27
2022-12-18T19:12:01.342Z,15.73
2022-12-18T19:14:28.310Z,17.83
2022-12-18T19:16:55.639Z,14.25
2022-12-18T19:19:22.631Z,14.13
2022-12-18T19:21:50.218Z,14.63
2022-12-18T19:24:17.410Z,16.27
2022-12-18T19:26:44.198Z,16.95
2022-12-18T19:29:12.380Z,14.65
2022-12-18T19:31:39.120Z,13.27
2022-12-18T19:34:07.998Z,17.27
2022-12-18T19:36:37.062Z,17.60
2022-12-18T19:39:16.501Z,16.63
2022-12-18T19:41:44.349Z,15.38
2022-12-18T19:44:13.783Z,16.60
2022-12-18T19:46:43.029Z,17.27
2022-12-18T19:49:11.303Z,13.65
2022-12-18T19:51:43.604Z,17.70
2022-12-18T19:54:16.179Z,17.02
2022-12-18T19:56:43.679Z,19.15
2022-12-18T19:59:11.446Z,18.42
2022-12-18T20:01:38.319Z,18.17
2022-12-18T20:04:06.056Z,17.70
2022-12-18T20:06:46.792Z,16.88
2022-12-18T20:09:13.489Z,17.02
2022-12-18T20:11:42.002Z,15.02
2022-12-18T20:14:11.239Z,18.10
2022-12-18T20:16:38.568Z,19.52
2022-12-18T20:19:06.451Z,18.50
2022-12-18T20:21:33.367Z,21.35
2022-12-18T20:24:01.290Z,20.85
2022-12-18T20:26:28.521Z,19.70
2022-12-18T20:28:56.725Z,19.23
2022-12-18T20:31:24.762Z,18.50
2022-12-18T20:33:53.253Z,18.23
2022-12-18T20:36:23.588Z,19.05
2022-12-18T20:38:57.021Z,21.25
2022-12-18T20:41:27.355Z,16.10
2022-12-18T20:44:04.724Z,20.13
2022-12-18T20:46:31.556Z,17.77
2022-12-18T20:48:58.329Z,18.52
2022-12-18T20:51:26.804Z,20.42
2022-12-18T20:53:55.699Z,18.90
2022-12-18T20:56:23.426Z,19.08
2022-12-18T20:58:51.767Z,18.88
2022-12-18T21:01:23.717Z,17.33
2022-12-18T21:03:51.726Z,18.20
2022-12-18T21:06:20.651Z,19.48
2022-12-18T21:08:48.060Z,19.80
2022-12-18T21:11:52.033Z,17.88
2022-12-18T21:14:24.762Z,19.58
2022-12-18T21:16:54.511Z,27.83
2022-12-18T21:19:25.104Z,18.63
2022-12-18T21:21:52.892Z,19.20
2022-12-18T21:24:19.886Z,19.50
2022-12-18T21:26:47.946Z,18.58
2022-12-18T21:29:17.889Z,18.17
2022-12-18T21:31:45.515Z,19.55
2022-12-18T21:34:21.600Z,18.60
2022-12-18T21:36:49.632Z,19.10
2022-12-18T21:39:17.251Z,21.38
2022-12-18T21:42:03.714Z,19.13
2022-12-18T21:44:30.965Z,17.73
2022-12-18T21:47:15.138Z,18.05
2022-12-18T21:49:53.086Z,20.27
2022-12-18T21:52:31.178Z,19.70
2022-12-18T21:55:06.196Z,19.38
2022-12-18T21:57:35.956Z,19.83
2022-12-18T22:00:03.177Z,18.88
2022-12-18T22:02:30.085Z,18.10
2022-12-18T22:04:57.033Z,16.88
2022-12-18T22:07:23.671Z,18.65
2022-12-18T22:09:50.397Z,20.63
2022-12-18T22:12:35.368Z,18.75
2022-12-18T22:15:04.741Z,17.67
2022-12-18T22:17:31.363Z,18.35
2022-12-18T22:19:58.068Z,18.95
2022-12-18T22:22:25.005Z,17.33
2022-12-18T22:24:51.706Z,16.92
2022-12-18T22:27:18.397Z,18.00
2022-12-18T22:30:03.598Z,17.48
2022-12-18T22:32:31.823Z,18.48
2022-12-18T22:35:05.233Z,17.45
2022-12-18T22:37:34.378Z,17.90
2022-12-18T22:40:03.103Z,15.52
2022-12-18T22:42:31.421Z,15.40
2022-12-18T22:44:58.301Z,17.60
2022-12-18T22:47:29.490Z,16.48
2022-12-18T22:49:57.415Z,17.48
2022-12-18T22:52:25.080Z,16.75
2022-12-18T22:54:53.537Z,15.40
2022-12-18T22:57:21.768Z,17.27
2022-12-18T22:59:49.554Z,15.88
2022-12-18T23:02:17.846Z,15.02
2022-12-18T23:04:45.279Z,16.13
2022-12-18T23:07:12.065Z,15.75
2022-12-18T23:09:40.281Z,15.68
2022-12-18T23:12:07.828Z,15.93
2022-12-18T23:14:34.779Z,13.18
2022-12-18T23:17:01.425Z,15.98
2022-12-18T23:19:28.107Z,16.38
2022-12-18T23:21:58.279Z,15.98
2022-12-18T23:24:28.246Z,15.40
2022-12-18T23:26:58.051Z,15.57
2022-12-18T23:29:24.823Z,14.65
2022-12-18T23:31:51.490Z,13.90
2022-12-18T23:34:18.145Z,15.75
2022-12-18T23:36:46.453Z,15.90
2022-12-18T23:39:15.428Z,15.63
2022-12-18T23:41:55.108Z,16.90
2022-12-18T23:44:21.807Z,17.05
2022-12-18T23:46:48.680Z,16.13
2022-12-18T23:49:15.445Z,18.60
2022-12-18T23:51:42.114Z,16.40
2022-12-18T23:54:10.417Z,15.43
2022-12-18T23:56:37.106Z,17.05
2022-12-18T23:59:03.962Z,15.82
